createdAt,value
2023-09-17T00:00:43.635Z,18.91
2023-09-17T00:03:33.749Z,18.90
2023-09-17T00:06:02.806Z,19.06
2023-09-17T00:08:32.371Z,19.52
2023-09-17T00:11:00.877Z,19.01
2023-09-17T00:13:29.371Z,19.20
2023-09-17T00:16:00.336Z,19.05
2023-09-17T00:18:29.109Z,19.18
2023-09-17T00:20:57.789Z,19.22
2023-09-17T00:23:26.430Z,19.31
2023-09-17T00:25:56.475Z,19.98
2023-09-17T00:28:24.862Z,19.53
2023-09-17T00:30:55.423Z,19.30
2023-09-17T00:33:23.962Z,19.40
2023-09-17T00:35:52.637Z,19.26
2023-09-17T00:38:21.247Z,19.30
2023-09-17T00:40:50.013Z,19.23
2023-09-17T00:43:20.404Z,19.81
2023-09-17T00:45:48.952Z,19.16
2023-09-17T00:48:17.444Z,18.96
2023-09-17T00:50:46.493Z,18.94
2023-09-17T00:53:15.168Z,18.70
2023-09-17T00:55:43.849Z,18.56
2023-09-17T00:58:12.230Z,18.69
2023-09-17T01:00:42.279Z,19.02
2023-09-17T01:03:11.297Z,18.50
2023-09-17T01:05:44.456Z,18.98
2023-09-17T01:08:12.943Z,18.35
2023-09-17T01:10:42.353Z,18.42
2023-09-17T01:13:11.206Z,18.52
2023-09-17T01:15:41.698Z,18.76
2023-09-17T01:18:12.012Z,18.99
2023-09-17T01:20:45.274Z,19.24
2023-09-17T01:23:20.252Z,19.00
2023-09-17T01:25:57.156Z,18.97
2023-09-17T01:28:26.821Z,18.61
2023-09-17T01:30:55.323Z,17.77
2023-09-17T01:33:23.417Z,17.95
2023-09-17T01:36:12.463Z,18.70
2023-09-17T01:38:47.424Z,18.40
2023-09-17T01:41:16.841Z,18.01
2023-09-17T01:43:47.066Z,18.48
2023-09-17T01:46:17.967Z,17.75
2023-09-17T01:48:47.461Z,18.08
2023-09-17T01:51:17.344Z,17.81
2023-09-17T01:53:45.619Z,17.68
2023-09-17T01:56:15.087Z,17.88
2023-09-17T01:58:43.401Z,17.94
2023-09-17T02:01:15.266Z,18.59
2023-09-17T02:03:43.959Z,18.23
2023-09-17T02:06:12.515Z,18.11
2023-09-17T02:08:40.902Z,18.49
2023-09-17T02:11:09.482Z,18.58
2023-09-17T02:13:37.860Z,18.83
2023-09-17T02:16:06.616Z,18.86
2023-09-17T02:18:36.223Z,19.48
2023-09-17T02:21:04.964Z,18.83
2023-09-17T02:23:33.211Z,18.83
2023-09-17T02:26:01.868Z,18.57
2023-09-17T02:28:30.426Z,18.52
2023-09-17T02:31:00.907Z,18.45
2023-09-17T02:33:29.225Z,18.57
2023-09-17T02:35:59.186Z,19.11
2023-09-17T02:38:27.711Z,18.39
2023-09-17T02:40:56.349Z,18.27
2023-09-17T02:43:24.854Z,18.31
2023-09-17T02:45:55.312Z,18.29
2023-09-17T02:48:23.575Z,18.38
2023-09-17T02:50:52.031Z,18.33
2023-09-17T02:53:21.803Z,19.30
2023-09-17T02:55:50.543Z,19.06
2023-09-17T02:58:18.919Z,19.03
2023-09-17T03:00:47.649Z,19.20
2023-09-17T03:03:16.840Z,19.02
2023-09-17T03:05:48.311Z,19.56
2023-09-17T03:08:16.715Z,19.02
2023-09-17T03:10:46.714Z,19.31
2023-09-17T03:13:16.092Z,18.49
2023-09-17T03:15:45.639Z,18.23
2023-09-17T03:18:13.882Z,18.11
2023-09-17T03:20:44.515Z,18.15
2023-09-17T03:23:12.879Z,18.07
2023-09-17T03:25:41.607Z,18.26
2023-09-17T03:28:13.139Z,18.62
2023-09-17T03:30:41.831Z,18.07
2023-09-17T03:33:10.164Z,18.18
2023-09-17T03:35:38.784Z,18.12
2023-09-17T03:38:07.118Z,18.18
2023-09-17T03:40:36.369Z,18.39
2023-09-17T03:43:04.667Z,18.01
2023-09-17T03:45:34.586Z,18.67
2023-09-17T03:48:03.197Z,18.28
2023-09-17T03:50:31.875Z,18.38
2023-09-17T03:53:07.032Z,19.33
2023-09-17T03:55:36.241Z,18.70
2023-09-17T03:58:05.855Z,18.61
2023-09-17T04:00:35.692Z,19.08
2023-09-17T04:03:06.114Z,18.50
2023-09-17T04:05:35.925Z,18.34
2023-09-17T04:08:04.785Z,18.33
2023-09-17T04:10:33.646Z,18.53
2023-09-17T04:13:02.142Z,18.49
2023-09-17T04:15:30.716Z,18.60
2023-09-17T04:18:00.614Z,19.17
2023-09-17T04:20:29.630Z,18.37
2023-09-17T04:22:58.043Z,18.11
2023-09-17T04:25:27.470Z,18.21
2023-09-17T04:27:56.881Z,18.62
2023-09-17T04:30:25.438Z,17.96
2023-09-17T04:32:56.364Z,18.31
2023-09-17T04:35:27.249Z,18.62
2023-09-17T04:37:55.560Z,18.02
2023-09-17T04:40:27.135Z,18.05
2023-09-17T04:42:55.653Z,18.43
2023-09-17T04:45:35.230Z,19.58
2023-09-17T04:48:03.840Z,18.67
2023-09-17T04:50:35.480Z,19.27
2023-09-17T04:53:03.921Z,18.36
2023-09-17T04:55:32.521Z,18.31
2023-09-17T04:58:01.050Z,18.53
2023-09-17T05:00:29.678Z,18.68
2023-09-17T05:02:58.166Z,18.69
2023-09-17T05:05:27.089Z,18.64
2023-09-17T05:07:56.839Z,19.03
2023-09-17T05:10:25.438Z,18.68
2023-09-17T05:12:53.707Z,18.80
2023-09-17T05:15:22.488Z,18.79
2023-09-17T05:17:51.609Z,18.63
2023-09-17T05:20:22.820Z,18.56
2023-09-17T05:22:51.405Z,18.88
2023-09-17T05:25:21.478Z,19.41
2023-09-17T05:27:50.856Z,19.27
2023-09-17T05:30:20.523Z,20.01
2023-09-17T05:32:49.229Z,21.23
2023-09-17T05:35:18.091Z,21.92
2023-09-17T05:37:46.554Z,22.09
2023-09-17T05:40:15.171Z,22.46
2023-09-17T05:42:45.408Z,23.57
2023-09-17T05:45:13.919Z,22.95
2023-09-17T05:47:42.640Z,23.01
2023-09-17T05:50:11.904Z,23.81
2023-09-17T05:52:40.857Z,23.75
2023-09-17T05:55:10.053Z,24.27
2023-09-17T05:57:38.598Z,24.49
2023-09-17T06:00:10.046Z,25.49
2023-09-17T06:02:38.522Z,25.89
2023-09-17T06:05:07.998Z,24.13
2023-09-17T06:07:36.289Z,23.53
2023-09-17T06:10:06.107Z,23.40
2023-09-17T06:12:34.591Z,22.75
2023-09-17T06:15:03.185Z,22.62
2023-09-17T06:17:33.079Z,23.13
2023-09-17T06:20:01.903Z,22.38
2023-09-17T06:22:30.343Z,22.26
2023-09-17T06:24:59.047Z,21.95
2023-09-17T06:27:27.304Z,21.87
2023-09-17T06:29:55.849Z,21.85
2023-09-17T06:32:24.369Z,21.79
2023-09-17T06:34:54.475Z,22.32
2023-09-17T06:37:22.901Z,21.89
2023-09-17T06:39:51.698Z,21.92
2023-09-17T06:42:19.895Z,21.74
2023-09-17T06:44:49.104Z,21.82
2023-09-17T06:47:17.680Z,21.66
2023-09-17T06:49:46.661Z,22.10
2023-09-17T06:52:16.957Z,22.98
2023-09-17T06:54:46.828Z,22.57
2023-09-17T06:57:15.393Z,22.71
2023-09-17T06:59:43.841Z,22.69
2023-09-17T07:02:12.355Z,22.27
2023-09-17T07:04:41.261Z,21.93
2023-09-17T07:07:09.654Z,21.78
2023-09-17T07:09:39.966Z,22.30
2023-09-17T07:12:09.388Z,21.91
2023-09-17T07:14:38.077Z,21.31
2023-09-17T07:17:06.505Z,21.04
2023-09-17T07:19:35.214Z,20.89
2023-09-17T07:22:03.670Z,20.65
2023-09-17T07:24:34.033Z,20.58
2023-09-17T07:27:03.704Z,21.25
2023-09-17T07:29:32.256Z,20.59
2023-09-17T07:32:00.492Z,20.71
2023-09-17T07:34:29.284Z,20.75
2023-09-17T07:36:57.608Z,21.09
2023-09-17T07:39:26.228Z,21.27
2023-09-17T07:41:54.542Z,21.34
2023-09-17T07:44:25.935Z,21.88
2023-09-17T07:46:54.231Z,21.36
2023-09-17T07:49:27.976Z,21.32
2023-09-17T07:51:56.812Z,21.50
2023-09-17T07:54:26.484Z,21.57
2023-09-17T07:56:54.834Z,21.74
2023-09-17T07:59:24.860Z,22.41
2023-09-17T08:01:53.188Z,21.77
2023-09-17T08:04:22.089Z,21.89
2023-09-17T08:06:51.022Z,22.21
2023-09-17T08:09:19.629Z,22.67
2023-09-17T08:11:47.946Z,23.26
2023-09-17T08:14:16.578Z,23.60
2023-09-17T08:16:46.418Z,24.57
2023-09-17T08:19:15.083Z,24.55
2023-09-17T08:21:43.471Z,24.92
2023-09-17T08:24:12.412Z,25.01
2023-09-17T08:26:40.747Z,25.15
2023-09-17T08:29:11.582Z,25.22
2023-09-17T08:31:39.894Z,25.63
2023-09-17T08:34:10.239Z,26.75
2023-09-17T08:36:39.431Z,27.12
2023-09-17T08:39:08.644Z,27.00
2023-09-17T08:41:37.338Z,27.55
2023-09-17T08:44:07.304Z,28.28
2023-09-17T08:46:37.905Z,29.24
2023-09-17T08:49:06.888Z,29.67
2023-09-17T08:51:40.235Z,30.66
2023-09-17T08:54:13.690Z,30.64
2023-09-17T08:56:43.520Z,30.64
2023-09-17T08:59:13.564Z,31.37
2023-09-17T09:01:42.704Z,32.59
2023-09-17T09:04:11.709Z,32.68
2023-09-17T09:06:41.742Z,34.06
2023-09-17T09:09:11.130Z,34.52
2023-09-17T09:11:39.905Z,35.26
2023-09-17T09:14:09.168Z,37.03
2023-09-17T09:16:38.881Z,38.58
2023-09-17T09:19:09.125Z,38.91
2023-09-17T09:21:37.575Z,39.66
2023-09-17T09:24:07.900Z,42.02
2023-09-17T09:26:37.319Z,41.76
2023-09-17T09:29:06.833Z,40.97
2023-09-17T09:31:36.066Z,40.48
2023-09-17T09:34:04.793Z,40.09
2023-09-17T09:36:34.348Z,40.33
2023-09-17T09:39:03.845Z,40.91
2023-09-17T09:41:34.832Z,41.63
2023-09-17T09:44:04.891Z,41.50
2023-09-17T09:46:35.127Z,42.74
2023-09-17T09:49:04.030Z,43.84
2023-09-17T09:51:33.081Z,43.62
2023-09-17T09:54:01.783Z,43.13
2023-09-17T09:56:30.385Z,44.33
2023-09-17T09:59:01.756Z,45.93
2023-09-17T10:01:30.962Z,46.58
2023-09-17T10:04:00.468Z,47.43
2023-09-17T10:06:31.663Z,46.98
2023-09-17T10:09:01.811Z,46.51
2023-09-17T10:11:51.280Z,45.14
2023-09-17T10:14:29.013Z,46.68
2023-09-17T10:16:58.263Z,47.93
2023-09-17T10:19:28.331Z,47.21
2023-09-17T10:21:56.931Z,47.37
2023-09-17T10:24:26.148Z,43.79
2023-09-17T10:26:55.493Z,42.89
2023-09-17T10:29:24.561Z,43.30
2023-09-17T10:31:54.762Z,42.10
2023-09-17T10:34:25.696Z,40.38
2023-09-17T10:36:54.456Z,40.05
2023-09-17T10:39:26.620Z,40.43
2023-09-17T10:41:56.144Z,38.78
2023-09-17T10:44:26.004Z,37.55
2023-09-17T10:46:57.037Z,36.77
2023-09-17T10:49:26.572Z,35.32
2023-09-17T10:51:54.962Z,33.58
2023-09-17T10:54:23.710Z,32.48
2023-09-17T10:56:52.950Z,31.57
2023-09-17T10:59:22.368Z,30.69
2023-09-17T11:01:51.254Z,30.46
2023-09-17T11:04:23.107Z,33.11
2023-09-17T11:06:52.648Z,35.07
2023-09-17T11:09:21.654Z,35.45
2023-09-17T11:11:50.402Z,34.55
2023-09-17T11:14:19.233Z,33.65
2023-09-17T11:16:49.981Z,33.27
2023-09-17T11:19:20.937Z,32.67
2023-09-17T11:21:52.000Z,33.13
2023-09-17T11:24:22.351Z,33.16
2023-09-17T11:26:50.722Z,33.44
2023-09-17T11:29:20.981Z,33.04
2023-09-17T11:32:04.502Z,34.15
2023-09-17T11:34:36.309Z,35.55
2023-09-17T11:37:07.168Z,36.08
2023-09-17T11:39:36.974Z,35.09
2023-09-17T11:42:08.703Z,34.56
2023-09-17T11:44:38.605Z,33.77
2023-09-17T11:47:07.551Z,32.60
2023-09-17T11:49:36.360Z,31.34
2023-09-17T11:52:11.025Z,31.10
2023-09-17T11:54:49.678Z,30.51
2023-09-17T11:57:25.866Z,30.40
2023-09-17T11:59:56.336Z,29.12
2023-09-17T12:02:25.667Z,28.68
2023-09-17T12:04:54.981Z,28.11
2023-09-17T12:07:26.392Z,28.36
2023-09-17T12:10:02.260Z,27.60
2023-09-17T12:12:32.142Z,27.97
2023-09-17T12:15:01.160Z,28.10
2023-09-17T12:17:30.080Z,27.41
2023-09-17T12:20:22.296Z,28.03
2023-09-17T12:22:58.136Z,27.76
2023-09-17T12:25:27.646Z,27.40
2023-09-17T12:27:56.195Z,26.59
2023-09-17T12:30:27.606Z,27.16
2023-09-17T12:32:56.086Z,27.25
2023-09-17T12:35:25.377Z,27.67
2023-09-17T12:37:53.952Z,27.64
2023-09-17T12:40:24.297Z,28.37
2023-09-17T12:42:52.849Z,28.09
2023-09-17T12:45:21.372Z,28.30
2023-09-17T12:47:49.812Z,28.36
2023-09-17T12:50:20.221Z,29.10
2023-09-17T12:52:48.497Z,28.73
2023-09-17T12:55:17.072Z,28.97
2023-09-17T12:57:50.242Z,29.87
2023-09-17T13:00:19.088Z,29.23
2023-09-17T13:02:49.586Z,28.97
2023-09-17T13:05:21.924Z,30.12
2023-09-17T13:07:50.530Z,29.76
2023-09-17T13:10:22.692Z,30.19
2023-09-17T13:12:53.684Z,29.38
2023-09-17T13:15:22.984Z,28.51
2023-09-17T13:17:51.368Z,27.98
2023-09-17T13:20:21.093Z,27.88
2023-09-17T13:22:50.138Z,27.71
2023-09-17T13:25:20.847Z,27.89
2023-09-17T13:27:49.118Z,27.51
2023-09-17T13:30:19.962Z,28.18
2023-09-17T13:32:49.668Z,28.55
2023-09-17T13:35:21.718Z,29.09
2023-09-17T13:37:50.035Z,28.55
2023-09-17T13:40:18.611Z,28.63
2023-09-17T13:42:46.989Z,28.77
2023-09-17T13:45:18.612Z,28.80
2023-09-17T13:47:48.254Z,29.25
2023-09-17T13:50:16.994Z,28.14
2023-09-17T13:52:45.896Z,27.51
2023-09-17T13:55:15.159Z,27.76
2023-09-17T13:57:49.398Z,28.10
2023-09-17T14:00:24.016Z,28.44
2023-09-17T14:02:56.821Z,28.75
2023-09-17T14:05:31.054Z,28.27
2023-09-17T14:08:07.112Z,28.38
2023-09-17T14:10:36.119Z,28.32
2023-09-17T14:13:05.606Z,27.70
2023-09-17T14:15:35.482Z,27.33
2023-09-17T14:18:05.702Z,27.54
2023-09-17T14:20:34.428Z,27.05
2023-09-17T14:23:04.401Z,26.77
2023-09-17T14:25:33.112Z,26.57
2023-09-17T14:28:01.726Z,26.82
2023-09-17T14:30:30.528Z,26.97
2023-09-17T14:32:59.370Z,27.00
2023-09-17T14:35:30.036Z,26.41
2023-09-17T14:37:58.344Z,26.06
2023-09-17T14:40:27.087Z,26.28
2023-09-17T14:42:56.149Z,26.42
2023-09-17T14:45:24.966Z,26.70
2023-09-17T14:47:53.381Z,26.81
2023-09-17T14:50:22.279Z,26.95
2023-09-17T14:52:52.228Z,27.31
2023-09-17T14:55:22.218Z,26.43
2023-09-17T14:57:50.464Z,26.56
2023-09-17T15:00:19.139Z,26.63
2023-09-17T15:02:50.445Z,26.65
2023-09-17T15:05:19.895Z,26.72
2023-09-17T15:07:48.279Z,26.64
2023-09-17T15:10:18.315Z,27.13
2023-09-17T15:12:46.448Z,26.61
2023-09-17T15:15:15.002Z,26.45
2023-09-17T15:17:43.326Z,26.28
2023-09-17T15:20:12.780Z,26.66
2023-09-17T15:22:41.147Z,26.68
2023-09-17T15:25:10.792Z,27.17
2023-09-17T15:27:40.607Z,27.43
2023-09-17T15:30:12.001Z,27.04
2023-09-17T15:32:40.794Z,26.89
2023-09-17T15:35:18.072Z,27.20
2023-09-17T15:37:49.584Z,27.11
2023-09-17T15:40:18.711Z,26.94
2023-09-17T15:42:48.364Z,27.39
2023-09-17T15:45:17.190Z,27.08
2023-09-17T15:47:45.613Z,27.03
2023-09-17T15:50:14.346Z,27.25
2023-09-17T15:52:42.893Z,27.23
2023-09-17T15:55:11.823Z,27.05
2023-09-17T15:57:40.209Z,27.10
2023-09-17T16:00:11.707Z,27.97
2023-09-17T16:02:40.145Z,27.33
2023-09-17T16:05:09.612Z,27.54
2023-09-17T16:07:42.813Z,27.44
2023-09-17T16:10:13.308Z,26.47
2023-09-17T16:12:41.666Z,26.30
2023-09-17T16:15:12.342Z,26.99
2023-09-17T16:17:40.991Z,26.07
2023-09-17T16:20:10.585Z,26.18
2023-09-17T16:22:39.041Z,25.90
2023-09-17T16:25:09.671Z,25.87
2023-09-17T16:27:38.134Z,25.58
2023-09-17T16:30:09.536Z,25.77
2023-09-17T16:32:39.993Z,26.13
2023-09-17T16:35:09.203Z,27.23
2023-09-17T16:37:37.534Z,25.68
2023-09-17T16:40:07.823Z,25.71
2023-09-17T16:42:36.207Z,25.53
2023-09-17T16:45:06.017Z,25.50
2023-09-17T16:47:34.529Z,25.29
2023-09-17T16:50:04.945Z,25.68
2023-09-17T16:52:33.539Z,25.08
2023-09-17T16:55:02.284Z,24.96
2023-09-17T16:57:31.110Z,24.94
2023-09-17T16:59:59.639Z,24.79
2023-09-17T17:02:28.121Z,24.72
2023-09-17T17:04:59.241Z,24.84
2023-09-17T17:07:28.958Z,25.11
2023-09-17T17:09:57.504Z,24.56
2023-09-17T17:12:25.800Z,24.41
2023-09-17T17:14:56.571Z,24.40
2023-09-17T17:17:25.868Z,24.35
2023-09-17T17:19:55.521Z,24.17
2023-09-17T17:22:23.767Z,24.17
2023-09-17T17:24:53.640Z,24.66
2023-09-17T17:27:23.640Z,23.95
2023-09-17T17:29:52.197Z,23.88
2023-09-17T17:32:20.507Z,23.83
2023-09-17T17:34:49.330Z,23.65
2023-09-17T17:37:17.577Z,23.69
2023-09-17T17:39:47.775Z,23.93
2023-09-17T17:42:17.758Z,24.66
2023-09-17T17:44:46.278Z,24.01
2023-09-17T17:47:14.696Z,23.94
2023-09-17T17:49:43.344Z,23.84
2023-09-17T17:52:11.621Z,23.80
2023-09-17T17:54:40.610Z,23.83
2023-09-17T17:57:08.915Z,23.71
2023-09-17T17:59:41.469Z,24.24
2023-09-17T18:02:10.124Z,23.90
2023-09-17T18:04:38.858Z,23.88
2023-09-17T18:07:07.239Z,23.72
2023-09-17T18:09:35.892Z,23.61
2023-09-17T18:12:04.226Z,23.67
2023-09-17T18:14:33.637Z,24.20
2023-09-17T18:17:03.356Z,24.33
2023-09-17T18:19:32.063Z,23.79
2023-09-17T18:22:00.409Z,23.60
2023-09-17T18:24:29.822Z,23.55
2023-09-17T18:26:58.246Z,23.45
2023-09-17T18:29:31.496Z,23.31
2023-09-17T18:32:02.793Z,23.34
2023-09-17T18:34:32.918Z,23.75
2023-09-17T18:37:01.308Z,23.09
2023-09-17T18:39:30.984Z,22.87
2023-09-17T18:41:59.321Z,22.82
2023-09-17T18:44:28.726Z,22.81
2023-09-17T18:46:57.354Z,22.75
2023-09-17T18:49:25.823Z,22.67
2023-09-17T18:51:56.500Z,23.16
2023-09-17T18:54:25.100Z,22.64
2023-09-17T18:56:53.516Z,22.74
2023-09-17T18:59:22.386Z,22.56
2023-09-17T19:01:51.011Z,22.56
2023-09-17T19:04:19.651Z,22.54
2023-09-17T19:06:48.242Z,22.33
2023-09-17T19:09:18.777Z,22.67
2023-09-17T19:11:47.437Z,22.26
2023-09-17T19:14:15.987Z,22.15
2023-09-17T19:16:44.326Z,22.06
2023-09-17T19:19:12.960Z,22.06
2023-09-17T19:21:41.381Z,22.11
2023-09-17T19:24:10.062Z,21.98
2023-09-17T19:26:40.107Z,22.54
2023-09-17T19:29:09.612Z,21.98
2023-09-17T19:31:38.002Z,21.92
2023-09-17T19:34:09.005Z,21.91
2023-09-17T19:36:38.200Z,21.96
2023-09-17T19:39:07.232Z,21.89
2023-09-17T19:41:35.768Z,21.93
2023-09-17T19:44:09.113Z,22.77
2023-09-17T19:46:38.166Z,21.84
2023-09-17T19:49:07.065Z,21.72
2023-09-17T19:51:36.994Z,21.86
2023-09-17T19:54:08.430Z,22.06
2023-09-17T19:56:36.712Z,21.67
2023-09-17T19:59:07.775Z,22.24
2023-09-17T20:01:39.312Z,21.63
2023-09-17T20:04:08.303Z,21.56
2023-09-17T20:06:51.933Z,21.70
2023-09-17T20:09:23.008Z,21.63
2023-09-17T20:11:51.645Z,21.50
2023-09-17T20:14:22.087Z,22.04
2023-09-17T20:16:50.798Z,21.73
2023-09-17T20:19:19.462Z,21.56
2023-09-17T20:21:47.812Z,21.53
2023-09-17T20:24:16.390Z,21.51
2023-09-17T20:26:46.078Z,21.91
2023-09-17T20:29:14.739Z,21.46
2023-09-17T20:31:44.688Z,22.13
2023-09-17T20:34:15.068Z,21.67
2023-09-17T20:36:45.832Z,21.39
2023-09-17T20:39:15.574Z,21.24
2023-09-17T20:41:47.430Z,21.21
2023-09-17T20:44:16.134Z,21.08
2023-09-17T20:46:47.107Z,21.71
2023-09-17T20:49:15.839Z,22.76
2023-09-17T20:51:45.248Z,21.00
2023-09-17T20:54:13.765Z,20.98
2023-09-17T20:56:43.361Z,20.85
2023-09-17T20:59:11.914Z,20.71
2023-09-17T21:01:40.868Z,20.71
2023-09-17T21:04:11.096Z,21.40
2023-09-17T21:06:39.603Z,20.63
2023-09-17T21:09:08.260Z,20.59
2023-09-17T21:11:36.638Z,20.52
2023-09-17T21:14:05.320Z,20.43
2023-09-17T21:16:33.689Z,20.45
2023-09-17T21:19:02.897Z,20.41
2023-09-17T21:21:32.497Z,20.99
2023-09-17T21:24:02.922Z,20.44
2023-09-17T21:26:31.448Z,20.53
2023-09-17T21:28:59.967Z,20.44
2023-09-17T21:31:28.881Z,20.73
2023-09-17T21:33:57.652Z,20.69
2023-09-17T21:36:26.289Z,20.46
2023-09-17T21:38:56.489Z,20.95
2023-09-17T21:41:24.835Z,20.31
2023-09-17T21:43:53.879Z,20.21
2023-09-17T21:46:22.431Z,19.98
2023-09-17T21:48:51.164Z,19.97
2023-09-17T21:51:19.612Z,20.09
2023-09-17T21:53:49.838Z,20.17
2023-09-17T21:56:20.374Z,20.67
2023-09-17T21:58:48.973Z,20.03
2023-09-17T22:01:19.483Z,20.15
2023-09-17T22:03:48.059Z,20.18
2023-09-17T22:06:17.628Z,20.18
2023-09-17T22:08:46.289Z,20.20
2023-09-17T22:11:20.486Z,20.12
2023-09-17T22:13:49.068Z,19.96
2023-09-17T22:16:17.499Z,19.94
2023-09-17T22:18:46.573Z,19.94
2023-09-17T22:21:15.369Z,20.01
2023-09-17T22:23:44.707Z,19.90
2023-09-17T22:26:13.142Z,19.71
2023-09-17T22:28:43.336Z,20.29
2023-09-17T22:31:13.067Z,20.03
2023-09-17T22:33:43.076Z,19.89
2023-09-17T22:36:12.378Z,19.95
2023-09-17T22:38:43.189Z,19.92
2023-09-17T22:41:18.263Z,20.17
2023-09-17T22:43:49.183Z,19.95
2023-09-17T22:46:18.323Z,19.52
2023-09-17T22:48:50.609Z,19.28
2023-09-17T22:51:19.842Z,19.21
2023-09-17T22:53:48.742Z,19.38
2023-09-17T22:56:17.721Z,19.31
2023-09-17T22:58:47.485Z,19.55
2023-09-17T23:01:18.872Z,19.44
2023-09-17T23:03:47.235Z,19.18
2023-09-17T23:06:15.801Z,18.95
2023-09-17T23:08:44.117Z,19.01
2023-09-17T23:11:13.374Z,18.91
2023-09-17T23:13:42.360Z,19.24
2023-09-17T23:16:12.316Z,19.52
2023-09-17T23:18:41.158Z,18.96
2023-09-17T23:21:09.779Z,19.08
2023-09-17T23:23:38.115Z,18.90
2023-09-17T23:26:06.720Z,18.93
2023-09-17T23:28:38.250Z,18.62
2023-09-17T23:31:07.391Z,18.84
2023-09-17T23:33:37.244Z,19.30
2023-09-17T23:36:06.395Z,18.97
2023-09-17T23:38:35.367Z,18.86
2023-09-17T23:41:06.556Z,18.59
2023-09-17T23:43:34.989Z,18.64
2023-09-17T23:46:04.384Z,18.65
2023-09-17T23:48:32.883Z,18.52
2023-09-17T23:51:03.281Z,19.07
2023-09-17T23:53:31.781Z,18.49
2023-09-17T23:56:00.700Z,18.38
2023-09-17T23:58:29.137Z,18.40
